Time;durP1;ratioP1;P1;durP2;ratioP2;P2;SDS_P1;SDS_P2;PMS_P1;PMS_P2;Temp;Humidity;BMP_temperature;BMP_pressure;BME280_temperature;BME280_humidity;BME280_pressure;Samples;Min_cycle;Max_cycle;Signal;HPM_P1;HPM_P2
2021/09/22 01:38:38;;;;;;;17.77;16.17;;;13.10;99.90;;;;;;10432190;28;20596;-83
2021/09/22 01:43:53;;;;;;;15.77;14.37;;;13.10;99.90;;;;;;10401663;28;20723;-83
2021/09/22 01:48:59;;;;;;;17.07;15.37;;;13.00;99.90;;;;;;10401556;28;20293;-83
2021/09/22 01:54:04;;;;;;;18.70;16.90;;;13.10;99.90;;;;;;10401067;28;20702;-83
2021/09/22 01:59:08;;;;;;;18.87;17.17;;;13.00;99.90;;;;;;10417010;28;20713;-83
2021/09/22 02:04:33;;;;;;;17.27;15.70;;;13.00;99.90;;;;;;10417168;28;20225;-83
2021/09/22 02:09:43;;;;;;;18.03;16.43;;;13.00;99.90;;;;;;10400999;28;20209;-83
2021/09/22 02:14:45;;;;;;;17.20;15.70;;;13.00;99.90;;;;;;10400821;28;20221;-83
2021/09/22 02:19:48;;;;;;;18.07;16.20;;;13.00;99.90;;;;;;10416708;28;20200;-83
2021/09/22 02:25:16;;;;;;;20.33;18.53;;;13.00;99.90;;;;;;10418409;28;20245;-83
2021/09/22 02:30:20;;;;;;;18.67;17.03;;;13.00;99.90;;;;;;10400794;28;20234;-83
2021/09/22 02:35:28;;;;;;;17.50;16.00;;;12.90;99.90;;;;;;10403353;28;20245;-83
2021/09/22 02:40:55;;;;;;;17.93;16.37;;;12.90;99.90;;;;;;10428083;28;20201;-83
2021/09/22 02:46:01;;;;;;;16.80;15.40;;;12.90;99.90;;;;;;10382847;28;20222;-83
2021/09/22 02:51:20;;;;;;;19.20;17.50;;;12.90;99.90;;;;;;10382766;28;20221;-83
2021/09/22 02:56:24;;;;;;;18.77;17.00;;;12.90;99.90;;;;;;10399488;28;20745;-83
2021/09/22 03:01:26;;;;;;;19.37;17.73;;;12.90;99.90;;;;;;10391661;28;20213;-83
2021/09/22 03:06:29;;;;;;;19.87;18.17;;;12.90;99.90;;;;;;10422948;28;20224;-83
2021/09/22 03:11:33;;;;;;;20.83;18.93;;;12.90;99.90;;;;;;10439341;28;20274;-83
2021/09/22 03:16:35;;;;;;;21.27;19.37;;;12.80;99.90;;;;;;10438996;28;20221;-83
2021/09/22 03:21:37;;;;;;;20.47;18.57;;;12.80;99.90;;;;;;10422669;28;20201;-83
2021/09/22 03:26:42;;;;;;;20.93;18.93;;;12.80;99.90;;;;;;10437730;28;20213;-85
2021/09/22 03:31:44;;;;;;;20.13;18.23;;;12.80;99.90;;;;;;10426674;28;20386;-85
2021/09/22 03:36:47;;;;;;;21.60;19.47;;;12.70;99.90;;;;;;10442969;28;20231;-84
2021/09/22 03:41:51;;;;;;;20.03;18.23;;;12.80;99.90;;;;;;10456761;28;20219;-86
2021/09/22 03:46:55;;;;;;;19.57;17.67;;;12.70;99.90;;;;;;10446732;28;20225;-84
2021/09/22 03:51:57;;;;;;;20.40;18.60;;;12.70;99.90;;;;;;10438699;28;20189;-83
2021/09/22 03:57:21;;;;;;;22.43;20.27;;;12.60;99.90;;;;;;10421189;28;20244;-84
2021/09/22 04:02:27;;;;;;;21.77;19.47;;;12.60;99.90;;;;;;10415683;28;20216;-84
2021/09/22 04:07:30;;;;;;;21.67;19.60;;;12.60;99.90;;;;;;10416991;28;20772;-84
2021/09/22 04:12:33;;;;;;;18.73;17.13;;;12.60;99.90;;;;;;10422894;28;20203;-84
2021/09/22 04:17:36;;;;;;;21.33;19.33;;;12.70;99.90;;;;;;10420418;28;20220;-84
2021/09/22 04:22:39;;;;;;;23.37;21.07;;;12.60;99.90;;;;;;10418641;28;20239;-83
2021/09/22 04:27:43;;;;;;;22.57;20.20;;;12.70;99.90;;;;;;10418954;28;20217;-83
2021/09/22 04:33:04;;;;;;;20.27;18.50;;;12.70;99.90;;;;;;10453032;28;20203;-83
2021/09/22 04:38:27;;;;;;;21.90;19.60;;;12.60;99.90;;;;;;10435620;28;20201;-84
2021/09/22 04:43:48;;;;;;;22.60;20.50;;;12.60;99.90;;;;;;10456524;28;20696;-84
2021/09/22 04:49:13;;;;;;;20.93;18.93;;;12.50;99.90;;;;;;10439468;28;20212;-84
2021/09/22 04:54:35;;;;;;;21.63;19.70;;;12.50;99.90;;;;;;10442709;28;20220;-83
2021/09/22 05:00:10;;;;;;;20.50;18.73;;;12.50;99.90;;;;;;10425026;28;20205;-84
2021/09/22 05:05:34;;;;;;;23.23;20.87;;;12.40;99.90;;;;;;10466229;28;20228;-84
2021/09/22 05:10:55;;;;;;;23.20;21.00;;;12.40;99.90;;;;;;10470366;28;20669;-84
2021/09/22 05:16:18;;;;;;;24.03;21.53;;;12.40;99.90;;;;;;10460070;28;20228;-84
2021/09/22 05:21:39;;;;;;;23.73;21.33;;;12.40;99.90;;;;;;10458902;28;20208;-84
2021/09/22 05:27:00;;;;;;;22.30;19.20;;;12.50;99.90;;;;;;10457682;28;20221;-84
2021/09/22 05:32:22;;;;;;;23.03;20.73;;;12.40;99.90;;;;;;10448334;28;20208;-84
2021/09/22 05:37:43;;;;;;;23.40;21.10;;;12.50;99.90;;;;;;10457160;28;20229;-84
2021/09/22 05:43:21;;;;;;;25.13;22.63;;;12.50;99.90;;;;;;10382332;28;20271;-83
2021/09/22 05:48:43;;;;;;;22.50;20.10;;;12.50;99.90;;;;;;10457749;28;20223;-84
2021/09/22 05:54:04;;;;;;;22.50;20.40;;;12.50;99.90;;;;;;10457054;28;20225;-83
2021/09/22 05:59:25;;;;;;;25.27;22.87;;;12.60;99.90;;;;;;10457278;28;20201;-84
2021/09/22 06:04:51;;;;;;;23.50;21.30;;;12.60;99.90;;;;;;10420691;28;20256;-84
2021/09/22 06:10:14;;;;;;;23.27;21.03;;;12.60;99.90;;;;;;10422200;28;20669;-83
2021/09/22 06:15:28;;;;;;;21.83;19.83;;;12.70;99.90;;;;;;10423018;28;20291;-83
2021/09/22 06:20:37;;;;;;;22.50;20.33;;;12.70;99.90;;;;;;10423232;28;20680;-83
2021/09/22 06:25:39;;;;;;;23.87;21.37;;;12.80;99.90;;;;;;10439663;28;20248;-84
2021/09/22 06:30:42;;;;;;;23.03;20.80;;;12.80;99.90;;;;;;10440320;28;20220;-84
2021/09/22 06:35:45;;;;;;;22.60;20.40;;;12.90;99.90;;;;;;10439957;28;20264;-84
2021/09/22 06:40:52;;;;;;;22.83;20.73;;;13.00;99.90;;;;;;10436507;28;20271;-84
2021/09/22 06:45:55;;;;;;;23.37;21.27;;;13.10;99.90;;;;;;10438339;28;20708;-84
2021/09/22 06:50:58;;;;;;;23.67;21.27;;;13.30;99.90;;;;;;10421521;28;20616;-84
2021/09/22 06:56:01;;;;;;;21.50;19.60;;;13.40;99.90;;;;;;10438846;28;20221;-85
2021/09/22 07:01:03;;;;;;;22.80;20.70;;;13.50;99.90;;;;;;10438849;28;20220;-84
2021/09/22 07:06:09;;;;;;;21.30;19.30;;;13.60;99.90;;;;;;10437998;28;20328;-84
2021/09/22 07:11:12;;;;;;;21.50;19.60;;;13.70;99.90;;;;;;10421982;28;20704;-84
2021/09/22 07:16:16;;;;;;;21.40;19.43;;;13.80;99.90;;;;;;10454320;28;20217;-84
2021/09/22 07:21:20;;;;;;;22.73;20.40;;;14.00;99.90;;;;;;10456246;28;20197;-84
2021/09/22 07:26:22;;;;;;;23.07;20.60;;;14.00;99.90;;;;;;10437740;28;20236;-83
2021/09/22 07:31:24;;;;;;;21.00;18.83;;;14.10;99.90;;;;;;10437699;28;20618;-84
2021/09/22 07:36:28;;;;;;;23.30;21.00;;;14.20;99.90;;;;;;10421519;28;20237;-84
2021/09/22 07:41:30;;;;;;;21.60;19.70;;;14.30;99.90;;;;;;10454336;28;20193;-84
2021/09/22 07:46:32;;;;;;;23.10;21.00;;;14.40;99.90;;;;;;10420056;28;20335;-84
2021/09/22 07:51:36;;;;;;;22.57;20.47;;;14.50;99.90;;;;;;10420739;28;20201;-85
2021/09/22 07:56:38;;;;;;;21.73;19.77;;;14.70;99.90;;;;;;10436352;28;20284;-84
2021/09/22 08:01:40;;;;;;;22.63;20.53;;;14.80;99.90;;;;;;10436143;28;20272;-84
2021/09/22 08:06:43;;;;;;;21.10;19.17;;;14.90;99.90;;;;;;10439866;28;20274;-84
2021/09/22 08:11:46;;;;;;;19.20;17.40;;;15.00;99.90;;;;;;10436150;28;20197;-84
2021/09/22 08:16:48;;;;;;;21.77;19.60;;;15.10;99.90;;;;;;10452100;28;20213;-84
2021/09/22 08:21:52;;;;;;;19.37;17.60;;;15.30;99.90;;;;;;10419165;28;20197;-84
2021/09/22 08:26:54;;;;;;;19.67;17.67;;;15.40;99.90;;;;;;10418316;28;20316;-84
2021/09/22 08:31:56;;;;;;;18.90;17.10;;;15.60;99.90;;;;;;10418370;28;20213;-84
2021/09/22 08:37:00;;;;;;;19.57;17.67;;;15.70;99.90;;;;;;10434155;28;20253;-84
2021/09/22 08:42:04;;;;;;;18.73;17.03;;;15.80;99.90;;;;;;10418848;28;20202;-84
2021/09/22 08:47:06;;;;;;;19.60;17.80;;;15.80;99.90;;;;;;10434332;28;20229;-84
2021/09/22 08:52:10;;;;;;;18.00;16.40;;;15.90;99.90;;;;;;10434632;28;20205;-84
2021/09/22 08:57:12;;;;;;;18.33;16.73;;;16.00;99.90;;;;;;10434460;28;20297;-84
2021/09/22 09:02:17;;;;;;;18.07;16.50;;;16.00;99.90;;;;;;10434198;28;20205;-84
2021/09/22 09:07:20;;;;;;;17.60;16.00;;;16.20;99.90;;;;;;10434439;28;20225;-84
2021/09/22 09:12:24;;;;;;;17.50;15.80;;;16.30;99.90;;;;;;10417346;28;20657;-84
2021/09/22 09:17:37;;;;;;;18.00;16.17;;;16.50;99.90;;;;;;10434233;28;20279;-84
2021/09/22 09:22:43;;;;;;;13.53;12.33;;;16.60;99.90;;;;;;10433506;28;20262;-84
2021/09/22 09:27:45;;;;;;;12.87;11.63;;;16.70;99.90;;;;;;10434411;28;20248;-85
2021/09/22 09:32:47;;;;;;;13.17;12.07;;;16.80;99.90;;;;;;10440286;28;20197;-85
2021/09/22 09:37:54;;;;;;;11.83;10.83;;;17.00;99.90;;;;;;10424812;28;20692;-84
2021/09/22 09:43:00;;;;;;;11.03;10.03;;;17.20;99.90;;;;;;10441235;28;20201;-84
2021/09/22 09:48:05;;;;;;;9.70;8.80;;;17.30;99.90;;;;;;10423695;28;20633;-85
2021/09/22 09:53:09;;;;;;;8.70;7.90;;;17.50;99.90;;;;;;10442676;28;20220;-84
2021/09/22 09:58:12;;;;;;;10.97;9.93;;;17.70;99.90;;;;;;10423294;28;20193;-84
2021/09/22 10:03:16;;;;;;;11.03;9.40;;;17.70;99.90;;;;;;10439876;28;20664;-84
2021/09/22 10:08:23;;;;;;;10.47;9.07;;;17.70;99.60;;;;;;10440070;28;20200;-84
2021/09/22 10:13:25;;;;;;;9.17;8.47;;;17.70;99.90;;;;;;10440103;28;20231;-84
2021/09/22 10:18:27;;;;;;;11.30;10.10;;;17.70;99.90;;;;;;10423653;28;20284;-84
2021/09/22 10:23:31;;;;;;;10.00;8.93;;;17.70;99.90;;;;;;10423130;28;20235;-84
2021/09/22 10:28:37;;;;;;;10.83;10.00;;;17.60;99.90;;;;;;10440409;28;20581;-84
2021/09/22 10:33:39;;;;;;;8.80;8.10;;;17.60;99.60;;;;;;10439399;28;20239;-85
2021/09/22 10:38:46;;;;;;;7.07;6.57;;;17.50;99.90;;;;;;10438915;28;20562;-84
2021/09/22 10:43:48;;;;;;;8.63;7.93;;;17.50;99.90;;;;;;10438501;28;20240;-84
2021/09/22 10:49:07;;;;;;;9.37;8.57;;;17.50;99.90;;;;;;10438827;28;20197;-84
2021/09/22 10:54:14;;;;;;;8.40;7.70;;;17.40;99.90;;;;;;10421932;28;20315;-84
2021/09/22 10:59:32;;;;;;;7.73;7.13;;;17.40;99.90;;;;;;10439033;28;20200;-84
2021/09/22 11:04:56;;;;;;;8.43;7.83;;;17.40;99.90;;;;;;10421149;28;20287;-84
2021/09/22 11:09:59;;;;;;;8.10;7.50;;;17.40;99.90;;;;;;10438364;28;20193;-84
2021/09/22 11:15:03;;;;;;;8.97;8.27;;;17.40;99.90;;;;;;10437870;28;20283;-84
2021/09/22 11:20:06;;;;;;;6.77;6.20;;;17.40;99.30;;;;;;10421429;28;20692;-84
2021/09/22 11:25:11;;;;;;;5.73;5.33;;;17.50;98.90;;;;;;10437470;28;20231;-84
2021/09/22 11:30:13;;;;;;;5.23;4.93;;;17.50;99.90;;;;;;10437335;28;20561;-85
2021/09/22 11:35:17;;;;;;;6.67;6.17;;;17.50;99.60;;;;;;10453631;28;20320;-84
2021/09/22 11:40:23;;;;;;;5.37;4.87;;;17.60;99.30;;;;;;10420331;28;20229;-85
2021/09/22 11:45:27;;;;;;;5.10;4.70;;;17.70;98.50;;;;;;10419923;28;20239;-84
2021/09/22 11:50:34;;;;;;;5.93;5.20;;;17.70;99.00;;;;;;10437157;28;20201;-83
2021/09/22 11:55:38;;;;;;;6.83;6.23;;;17.80;98.70;;;;;;10435958;28;20221;-84
2021/09/22 12:00:43;;;;;;;5.50;5.10;;;17.90;99.00;;;;;;10453740;28;20199;-84
2021/09/22 12:05:45;;;;;;;6.13;5.53;;;17.90;99.80;;;;;;10437269;28;20701;-84
2021/09/22 12:10:49;;;;;;;4.60;4.30;;;18.00;99.90;;;;;;10420374;28;20201;-84
2021/09/22 12:15:54;;;;;;;4.73;4.43;;;18.00;99.90;;;;;;10436385;28;20214;-84
2021/09/22 12:20:57;;;;;;;4.20;3.90;;;18.00;98.40;;;;;;10436368;28;20200;-84
2021/09/22 12:26:12;;;;;;;5.13;4.63;;;18.00;99.60;;;;;;10419892;28;20232;-84
2021/09/22 12:31:20;;;;;;;4.70;4.40;;;18.00;99.90;;;;;;10435901;28;20263;-84
2021/09/22 12:36:22;;;;;;;5.20;4.80;;;18.10;99.90;;;;;;10419294;28;20779;-84
2021/09/22 12:41:27;;;;;;;5.40;5.07;;;18.20;99.90;;;;;;10436224;28;20531;-86
2021/09/22 12:46:37;;;;;;;6.70;5.40;;;18.20;99.60;;;;;;10436480;28;20231;-84
2021/09/22 12:51:47;;;;;;;5.20;4.90;;;18.30;99.90;;;;;;10436278;28;20193;-84
2021/09/22 12:56:51;;;;;;;6.37;5.87;;;18.30;98.80;;;;;;10435007;28;20767;-85
2021/09/22 13:01:54;;;;;;;5.93;5.43;;;18.40;99.90;;;;;;10417992;28;20726;-84
2021/09/22 13:06:58;;;;;;;5.50;5.10;;;18.50;99.90;;;;;;10460104;28;20221;-84
2021/09/22 13:12:02;;;;;;;5.93;5.53;;;18.50;99.90;;;;;;10463148;28;20235;-84
2021/09/22 13:17:04;;;;;;;5.70;4.90;;;18.50;99.90;;;;;;10464064;28;20244;-84
2021/09/22 13:22:08;;;;;;;5.10;4.70;;;18.50;99.90;;;;;;10427417;28;20240;-83
2021/09/22 13:27:11;;;;;;;5.20;4.90;;;18.50;99.90;;;;;;10443362;28;20229;-83
2021/09/22 13:32:13;;;;;;;5.90;5.40;;;18.50;99.90;;;;;;10426903;28;20201;-83
2021/09/22 18:00:49;;;;;;;4.70;4.40;;;16.50;99.90;;;;;;10252072;29;20687;-82
2021/09/22 18:07:03;;;;;;;10.40;9.47;;;16.50;99.90;;;;;;10236698;29;20673;-82
2021/09/22 19:39:24;;;;;;;6.20;5.60;;;15.70;99.90;;;;;;10499849;22;20610;-84
2021/09/22 19:44:27;;;;;;;6.20;5.80;;;15.60;99.90;;;;;;10478480;28;20575;-84
2021/09/22 19:49:29;;;;;;;5.80;5.40;;;15.60;99.90;;;;;;10461724;28;20247;-84
2021/09/22 19:54:33;;;;;;;6.97;6.37;;;15.50;99.90;;;;;;10463009;28;20195;-84
2021/09/22 19:59:37;;;;;;;5.60;5.20;;;15.50;99.90;;;;;;10482264;28;20204;-85
2021/09/22 20:04:40;;;;;;;6.40;5.90;;;15.40;99.90;;;;;;10461294;28;20228;-85
2021/09/22 20:09:43;;;;;;;7.37;6.00;;;15.40;99.90;;;;;;10461226;28;20225;-86
2021/09/22 20:14:48;;;;;;;6.10;5.57;;;15.40;99.90;;;;;;10476827;28;20223;-84
2021/09/22 20:19:50;;;;;;;7.17;6.67;;;15.30;99.90;;;;;;10475439;28;21038;-85
2021/09/22 20:24:55;;;;;;;6.20;5.60;;;15.30;99.90;;;;;;10455389;28;20220;-85
2021/09/22 20:29:59;;;;;;;7.93;7.13;;;15.30;99.90;;;;;;10476656;28;20207;-86
2021/09/22 20:35:01;;;;;;;12.83;8.00;;;15.20;99.90;;;;;;10476049;28;20231;-86
2021/09/22 20:40:06;;;;;;;6.40;5.80;;;15.20;99.90;;;;;;10457098;28;20283;-86
2021/09/22 20:45:09;;;;;;;7.53;5.53;;;15.20;99.90;;;;;;10457147;28;20234;-85
2021/09/22 20:50:12;;;;;;;5.70;4.97;;;15.10;99.90;;;;;;10459671;28;20208;-86
2021/09/22 20:55:16;;;;;;;7.20;4.87;;;15.10;99.90;;;;;;10459597;28;20565;-86
2021/09/22 21:00:18;;;;;;;8.17;4.90;;;15.10;99.90;;;;;;10459165;28;20287;-86
2021/09/22 21:05:20;;;;;;;7.40;4.80;;;15.00;99.90;;;;;;10475890;28;20303;-86
2021/09/22 21:10:24;;;;;;;6.53;5.53;;;15.00;99.90;;;;;;10476478;28;20640;-85
2021/09/22 21:15:26;;;;;;;6.10;5.60;;;14.90;99.90;;;;;;10459774;28;20726;-86
2021/09/22 21:20:29;;;;;;;5.80;5.30;;;14.90;99.90;;;;;;10493911;28;20181;-85
2021/09/22 21:25:32;;;;;;;5.53;5.00;;;14.90;99.90;;;;;;10479101;28;20243;-85
2021/09/22 21:30:34;;;;;;;5.23;4.77;;;14.90;99.90;;;;;;10466969;28;20192;-85
2021/09/22 21:35:37;;;;;;;4.90;4.50;;;14.80;99.90;;;;;;10466060;28;20234;-85
2021/09/22 21:40:41;;;;;;;5.57;5.17;;;14.80;99.90;;;;;;10482584;28;20185;-86
2021/09/22 21:45:43;;;;;;;5.30;4.70;;;14.80;99.90;;;;;;10464801;28;20224;-86
2021/09/22 21:50:45;;;;;;;4.70;4.40;;;14.80;99.90;;;;;;10465064;28;20204;-86
2021/09/22 21:55:49;;;;;;;5.10;4.70;;;14.70;99.90;;;;;;10463680;28;20219;-86
2021/09/22 22:00:51;;;;;;;5.03;4.60;;;14.70;99.90;;;;;;10480923;28;20208;-86
2021/09/22 22:05:53;;;;;;;4.90;4.50;;;14.70;99.90;;;;;;10464117;28;20252;-85
2021/09/22 22:10:57;;;;;;;5.53;5.13;;;14.60;99.90;;;;;;10465390;28;20276;-86
2021/09/22 22:15:59;;;;;;;5.43;5.00;;;14.60;99.90;;;;;;10463805;28;20765;-85
2021/09/22 22:21:01;;;;;;;6.30;5.80;;;14.60;99.90;;;;;;10463286;28;20196;-85
2021/09/22 22:26:04;;;;;;;5.40;5.00;;;14.60;99.90;;;;;;10463601;28;20774;-85
2021/09/22 22:31:07;;;;;;;6.67;5.37;;;14.50;99.90;;;;;;10480224;28;20207;-85
2021/09/22 22:36:09;;;;;;;7.03;5.30;;;14.50;99.90;;;;;;10462274;28;20232;-86
2021/09/22 22:41:12;;;;;;;6.50;6.00;;;14.50;99.90;;;;;;10463671;28;20205;-85
2021/09/22 22:46:15;;;;;;;5.87;5.40;;;14.50;99.90;;;;;;10462879;28;20228;-85
2021/09/22 22:51:17;;;;;;;5.87;5.37;;;14.40;99.90;;;;;;10479360;28;20212;-85
2021/09/22 22:56:20;;;;;;;6.37;5.87;;;14.30;99.90;;;;;;10462304;28;20295;-85
2021/09/22 23:01:23;;;;;;;6.30;5.80;;;14.30;99.90;;;;;;10462159;28;20651;-86
2021/09/22 23:06:25;;;;;;;7.53;6.17;;;14.30;99.90;;;;;;10461633;28;20259;-85
2021/09/22 23:11:29;;;;;;;6.80;5.30;;;14.20;99.90;;;;;;10461969;28;20652;-86
2021/09/22 23:16:32;;;;;;;6.13;5.67;;;14.20;99.90;;;;;;10478062;28;20646;-85
2021/09/22 23:27:01;;;;;;;6.47;5.87;;;14.20;99.90;;;;;;10474858;28;20236;-85
2021/09/22 23:32:04;;;;;;;5.30;4.80;;;14.20;99.90;;;;;;10461393;28;20232;-86
2021/09/22 23:37:06;;;;;;;5.13;4.83;;;14.10;99.90;;;;;;10477167;28;20220;-85
2021/09/22 23:42:09;;;;;;;5.40;5.00;;;14.10;99.90;;;;;;10477645;28;20197;-86
2021/09/22 23:47:11;;;;;;;5.53;5.03;;;14.10;99.90;;;;;;10475628;28;20655;-85
2021/09/22 23:52:14;;;;;;;5.30;4.80;;;14.10;99.90;;;;;;10479337;28;20203;-84
2021/09/22 23:57:17;;;;;;;5.07;4.60;;;14.10;99.90;;;;;;10479154;28;20258;-84
